createdAt,value
2017-06-21T00:02:20.998Z,5.62
2017-06-21T00:04:49.029Z,5.60
2017-06-21T00:07:17.337Z,5.65
2017-06-21T00:09:44.877Z,5.45
2017-06-21T00:12:12.610Z,5.55
2017-06-21T00:14:41.372Z,5.57
2017-06-21T00:17:08.917Z,5.97
2017-06-21T00:19:36.461Z,5.82
2017-06-21T00:22:04.048Z,5.70
2017-06-21T00:24:31.597Z,5.57
2017-06-21T00:26:59.498Z,5.45
2017-06-21T00:29:27.036Z,5.97
2017-06-21T00:31:54.574Z,5.15
2017-06-21T00:34:22.586Z,5.65
2017-06-21T00:36:50.131Z,5.12
2017-06-21T00:39:17.722Z,5.85
2017-06-21T00:41:45.270Z,5.60
2017-06-21T00:44:12.878Z,5.25
2017-06-21T00:46:40.421Z,6.05
2017-06-21T00:49:07.963Z,5.43
2017-06-21T00:51:35.662Z,5.32
2017-06-21T00:54:03.209Z,5.47
2017-06-21T00:56:31.857Z,5.50
2017-06-21T00:58:59.407Z,5.55
2017-06-21T01:01:26.941Z,6.53
2017-06-21T01:03:54.775Z,5.20
2017-06-21T01:06:23.082Z,5.47
2017-06-21T01:08:50.626Z,5.30
2017-06-21T01:11:18.621Z,5.32
2017-06-21T01:13:46.163Z,5.03
2017-06-21T01:16:14.082Z,5.30
2017-06-21T01:18:41.933Z,5.60
2017-06-21T01:21:09.477Z,5.35
2017-06-21T01:23:37.022Z,5.60
2017-06-21T01:26:05.037Z,4.85
2017-06-21T01:28:32.583Z,5.57
2017-06-21T01:31:00.125Z,5.70
2017-06-21T01:33:27.794Z,5.25
2017-06-21T01:35:55.330Z,5.22
2017-06-21T01:38:23.733Z,5.70
2017-06-21T01:40:51.306Z,5.22
2017-06-21T01:43:19.189Z,5.18
2017-06-21T01:45:46.731Z,5.60
2017-06-21T01:48:14.286Z,5.43
2017-06-21T01:50:42.278Z,5.62
2017-06-21T01:53:09.817Z,5.50
2017-06-21T01:55:37.361Z,5.70
2017-06-21T01:58:04.957Z,5.80
2017-06-21T02:00:32.494Z,5.40
2017-06-21T02:03:00.038Z,5.62
2017-06-21T02:05:27.910Z,5.62
2017-06-21T02:07:55.462Z,5.90
2017-06-21T02:10:23.014Z,5.30
2017-06-21T02:12:51.653Z,5.50
2017-06-21T02:15:19.337Z,5.43
2017-06-21T02:17:46.882Z,6.20
2017-06-21T02:20:14.457Z,5.97
2017-06-21T02:22:42.037Z,5.78
2017-06-21T02:25:10.342Z,5.80
2017-06-21T02:27:38.109Z,5.47
2017-06-21T02:30:05.647Z,5.65
2017-06-21T02:32:33.954Z,6.43
2017-06-21T02:35:01.845Z,5.57
2017-06-21T02:37:29.382Z,5.87
2017-06-21T02:39:56.922Z,5.97
2017-06-21T02:42:24.572Z,5.72
2017-06-21T02:44:55.473Z,5.70
2017-06-21T02:47:23.025Z,5.80
2017-06-21T02:49:50.601Z,5.72
2017-06-21T02:52:18.182Z,6.05
2017-06-21T02:54:46.521Z,6.20
2017-06-21T02:57:14.102Z,6.00
2017-06-21T02:59:41.809Z,6.10
2017-06-21T03:02:09.349Z,5.50
2017-06-21T03:04:37.702Z,6.53
2017-06-21T03:07:05.237Z,6.45
2017-06-21T03:09:33.222Z,6.62
2017-06-21T03:12:00.767Z,5.87
2017-06-21T03:14:29.417Z,6.10
2017-06-21T03:16:57.364Z,5.87
2017-06-21T03:19:25.673Z,5.97
2017-06-21T03:21:53.221Z,6.05
2017-06-21T03:24:22.147Z,5.25
2017-06-21T03:26:49.692Z,6.00
2017-06-21T03:29:17.240Z,6.00
2017-06-21T03:31:44.989Z,5.35
2017-06-21T03:34:13.442Z,6.30
2017-06-21T03:36:40.998Z,5.85
2017-06-21T03:39:08.597Z,5.65
2017-06-21T03:41:36.141Z,5.50
2017-06-21T03:44:04.790Z,6.10
2017-06-21T03:46:32.410Z,5.57
2017-06-21T03:49:01.574Z,4.93
2017-06-21T03:51:29.121Z,5.55
2017-06-21T03:53:56.663Z,5.30
2017-06-21T03:56:24.278Z,5.53
2017-06-21T03:58:52.925Z,5.68
2017-06-21T04:01:20.466Z,5.20
2017-06-21T04:03:48.016Z,5.10
2017-06-21T04:06:16.185Z,5.30
2017-06-21T04:08:43.733Z,5.35
2017-06-21T04:11:11.277Z,5.57
2017-06-21T04:13:39.630Z,5.32
2017-06-21T04:16:07.647Z,5.82
2017-06-21T04:18:35.194Z,6.12
2017-06-21T04:21:02.786Z,5.95
2017-06-21T04:23:30.329Z,5.40
2017-06-21T04:25:58.173Z,6.55
2017-06-21T04:28:26.491Z,5.90
2017-06-21T04:30:54.070Z,6.20
2017-06-21T04:33:21.613Z,6.30
2017-06-21T04:35:49.511Z,5.65
2017-06-21T04:38:17.052Z,5.82
2017-06-21T04:40:44.594Z,5.72
2017-06-21T04:43:17.218Z,5.57
2017-06-21T04:45:44.760Z,6.10
2017-06-21T04:48:12.328Z,5.60
2017-06-21T04:50:39.909Z,5.87
2017-06-21T04:53:07.458Z,5.47
2017-06-21T04:55:35.053Z,5.50
2017-06-21T04:58:02.602Z,5.68
2017-06-21T05:00:31.122Z,6.30
2017-06-21T05:02:58.666Z,5.30
2017-06-21T05:05:26.578Z,6.50
2017-06-21T05:07:54.121Z,5.32
2017-06-21T05:10:21.666Z,5.68
2017-06-21T05:12:49.251Z,5.82
2017-06-21T05:15:17.193Z,6.62
2017-06-21T05:17:45.301Z,5.70
2017-06-21T05:20:12.844Z,6.07
2017-06-21T05:22:40.389Z,5.55
2017-06-21T05:25:07.970Z,5.90
2017-06-21T05:27:35.517Z,5.43
2017-06-21T05:30:03.509Z,5.20
2017-06-21T05:32:31.058Z,5.25
2017-06-21T05:34:58.601Z,5.10
2017-06-21T05:37:26.805Z,6.53
2017-06-21T05:39:54.349Z,5.55
2017-06-21T05:42:21.889Z,5.68
2017-06-21T05:44:49.470Z,5.90
2017-06-21T05:47:17.018Z,6.25
2017-06-21T05:49:44.913Z,5.90
2017-06-21T05:52:12.458Z,5.37
2017-06-21T05:54:40.005Z,5.72
2017-06-21T05:57:07.767Z,5.65
2017-06-21T05:59:35.322Z,5.60
2017-06-21T06:02:02.873Z,5.22
2017-06-21T06:04:30.460Z,5.35
2017-06-21T06:06:58.013Z,4.93
2017-06-21T06:09:25.608Z,5.53
2017-06-21T06:11:53.498Z,5.50
2017-06-21T06:14:21.805Z,5.70
2017-06-21T06:16:49.550Z,5.82
2017-06-21T06:19:18.013Z,5.47
2017-06-21T06:21:45.571Z,6.07
2017-06-21T06:24:13.122Z,5.50
2017-06-21T06:26:43.542Z,5.80
2017-06-21T06:29:11.090Z,5.32
2017-06-21T06:31:38.640Z,5.20
2017-06-21T06:34:06.789Z,5.50
2017-06-21T06:36:34.430Z,5.90
2017-06-21T06:39:01.981Z,5.70
2017-06-21T06:41:30.298Z,5.93
2017-06-21T06:43:58.017Z,5.57
2017-06-21T06:46:25.564Z,5.40
2017-06-21T06:48:53.162Z,5.90
2017-06-21T06:51:20.713Z,5.60
2017-06-21T06:53:49.059Z,6.20
2017-06-21T06:56:16.601Z,6.07
2017-06-21T06:58:44.293Z,5.40
2017-06-21T07:01:11.837Z,6.07
2017-06-21T07:03:39.377Z,6.83
2017-06-21T07:06:07.067Z,6.03
2017-06-21T07:08:34.625Z,6.10
2017-06-21T07:11:02.211Z,5.57
2017-06-21T07:13:29.758Z,6.20
2017-06-21T07:15:57.497Z,5.80
2017-06-21T07:18:25.082Z,5.80
2017-06-21T07:20:52.633Z,5.80
2017-06-21T07:23:20.282Z,5.97
2017-06-21T07:25:47.826Z,6.17
2017-06-21T07:28:15.459Z,5.37
2017-06-21T07:30:43.765Z,6.20
2017-06-21T07:33:11.459Z,6.87
2017-06-21T07:35:39.802Z,6.40
2017-06-21T07:38:07.434Z,6.10
2017-06-21T07:40:34.981Z,5.70
2017-06-21T07:43:02.833Z,6.23
2017-06-21T07:45:30.369Z,6.63
2017-06-21T07:47:57.955Z,6.30
2017-06-21T07:50:25.507Z,5.60
2017-06-21T07:52:53.101Z,6.60
2017-06-21T07:55:21.413Z,6.10
2017-06-21T07:57:49.022Z,6.20
2017-06-21T08:00:21.994Z,6.30
2017-06-21T08:02:49.538Z,5.50
2017-06-21T08:05:17.085Z,6.20
2017-06-21T08:07:44.674Z,6.07
2017-06-21T08:10:12.211Z,6.60
2017-06-21T08:12:39.798Z,5.87
2017-06-21T08:15:07.342Z,6.13
2017-06-21T08:17:36.037Z,6.20
2017-06-21T08:20:03.579Z,6.27
2017-06-21T08:22:31.124Z,6.70
2017-06-21T08:24:59.322Z,5.80
2017-06-21T08:27:26.866Z,6.40
2017-06-21T08:29:54.869Z,5.60
2017-06-21T08:32:22.582Z,6.00
2017-06-21T08:34:50.124Z,5.30
2017-06-21T08:37:18.878Z,6.27
2017-06-21T08:39:46.422Z,6.60
2017-06-21T08:42:13.970Z,6.03
2017-06-21T08:44:41.865Z,5.97
2017-06-21T08:47:09.412Z,5.60
2017-06-21T08:49:36.950Z,5.40
2017-06-21T08:52:04.666Z,5.13
2017-06-21T08:54:32.278Z,5.83
2017-06-21T08:56:59.817Z,5.80
2017-06-21T08:59:28.117Z,6.10
2017-06-21T09:01:55.977Z,5.53
2017-06-21T09:04:23.517Z,5.47
2017-06-21T09:06:51.825Z,5.73
2017-06-21T09:09:19.594Z,6.50
2017-06-21T09:11:47.173Z,5.60
2017-06-21T09:14:14.714Z,6.37
2017-06-21T09:16:42.405Z,5.83
2017-06-21T09:19:10.221Z,5.40
2017-06-21T09:21:37.765Z,5.97
2017-06-21T09:24:06.250Z,5.60
2017-06-21T09:26:33.786Z,6.10
2017-06-21T09:29:01.517Z,6.03
2017-06-21T09:31:29.094Z,6.23
2017-06-21T09:33:56.657Z,6.77
2017-06-21T09:36:24.233Z,6.00
2017-06-21T09:38:51.814Z,6.53
2017-06-21T09:41:20.119Z,5.80
2017-06-21T09:43:49.603Z,6.60
2017-06-21T09:46:17.910Z,6.33
2017-06-21T09:48:45.450Z,6.50
2017-06-21T09:51:13.062Z,6.17
2017-06-21T09:53:40.842Z,6.70
2017-06-21T09:56:08.446Z,6.13
2017-06-21T09:58:36.556Z,6.60
2017-06-21T10:01:04.094Z,6.20
2017-06-21T10:03:31.642Z,6.23
2017-06-21T10:05:59.227Z,6.90
2017-06-21T10:08:26.805Z,5.90
2017-06-21T10:10:54.350Z,6.63
2017-06-21T10:13:24.591Z,6.13
2017-06-21T10:15:52.145Z,6.00
2017-06-21T10:18:19.690Z,6.33
2017-06-21T10:20:47.550Z,6.20
2017-06-21T10:23:15.090Z,6.00
2017-06-21T10:25:42.677Z,6.50
2017-06-21T10:28:10.277Z,6.10
2017-06-21T10:30:37.818Z,5.90
2017-06-21T10:33:05.366Z,22.10
2017-06-21T10:35:33.049Z,9.07
2017-06-21T10:38:00.598Z,6.60
2017-06-21T10:40:28.181Z,6.47
2017-06-21T10:42:55.729Z,6.50
2017-06-21T10:45:23.318Z,6.63
2017-06-21T10:47:51.631Z,6.57
2017-06-21T10:50:23.241Z,6.53
2017-06-21T10:52:50.783Z,6.30
2017-06-21T10:55:18.322Z,6.80
2017-06-21T10:57:46.318Z,6.80
2017-06-21T11:00:13.857Z,6.63
2017-06-21T11:02:41.445Z,6.60
2017-06-21T11:05:09.030Z,6.97
2017-06-21T11:07:37.586Z,6.70
2017-06-21T11:10:05.137Z,6.00
2017-06-21T11:12:32.674Z,6.10
2017-06-21T11:15:00.258Z,6.90
2017-06-21T11:17:28.330Z,6.00
2017-06-21T11:19:55.878Z,6.70
2017-06-21T11:22:26.696Z,6.40
2017-06-21T11:24:54.591Z,6.80
2017-06-21T11:27:22.137Z,6.80
2017-06-21T11:29:49.753Z,6.47
2017-06-21T11:32:18.054Z,6.63
2017-06-21T11:34:45.605Z,6.40
2017-06-21T11:37:13.200Z,7.00
2017-06-21T11:39:41.056Z,6.37
2017-06-21T11:42:08.607Z,6.60
2017-06-21T11:44:36.469Z,6.40
2017-06-21T11:47:04.019Z,6.47
2017-06-21T11:49:31.563Z,6.40
2017-06-21T11:51:59.303Z,6.60
2017-06-21T11:54:27.153Z,6.80
2017-06-21T11:56:54.697Z,6.53
2017-06-21T11:59:22.681Z,6.70
2017-06-21T12:01:50.229Z,6.57
2017-06-21T12:04:17.789Z,6.50
2017-06-21T12:06:45.393Z,6.00
2017-06-21T12:09:12.931Z,6.40
2017-06-21T12:11:40.694Z,6.83
2017-06-21T12:14:08.677Z,6.20
2017-06-21T12:16:36.218Z,6.30
2017-06-21T12:19:04.150Z,6.23
2017-06-21T12:21:31.728Z,6.10
2017-06-21T12:23:59.615Z,6.13
2017-06-21T12:26:27.153Z,5.90
2017-06-21T12:28:54.697Z,6.50
2017-06-21T12:31:22.430Z,6.20
2017-06-21T12:33:50.741Z,5.83
2017-06-21T12:36:18.659Z,6.10
2017-06-21T12:38:46.198Z,6.33
2017-06-21T12:41:13.767Z,6.40
2017-06-21T12:43:41.629Z,6.60
2017-06-21T12:46:09.162Z,6.90
2017-06-21T12:48:36.701Z,6.40
2017-06-21T12:51:05.276Z,6.00
2017-06-21T12:53:33.626Z,6.50
2017-06-21T12:56:01.173Z,6.60
2017-06-21T12:58:29.030Z,6.53
2017-06-21T13:00:56.567Z,6.03
2017-06-21T13:03:24.117Z,6.70
2017-06-21T13:05:52.088Z,6.03
2017-06-21T13:08:19.634Z,6.20
2017-06-21T13:10:47.943Z,6.63
2017-06-21T13:13:15.539Z,7.10
2017-06-21T13:15:43.082Z,6.50
2017-06-21T13:18:11.171Z,7.33
2017-06-21T13:20:38.713Z,6.57
2017-06-21T13:23:06.254Z,6.93
2017-06-21T13:25:33.833Z,6.90
2017-06-21T13:28:01.374Z,6.53
2017-06-21T13:30:29.070Z,7.20
2017-06-21T13:32:56.611Z,6.47
2017-06-21T13:35:24.149Z,6.90
2017-06-21T13:37:51.802Z,6.60
2017-06-21T13:40:19.377Z,6.40
2017-06-21T13:42:46.963Z,7.03
2017-06-21T13:45:14.841Z,6.53
2017-06-21T13:47:42.382Z,7.40
2017-06-21T13:50:09.926Z,6.70
2017-06-21T13:52:37.884Z,7.37
2017-06-21T13:55:05.441Z,6.30
2017-06-21T14:00:36.787Z,6.70
2017-06-21T14:03:04.325Z,6.60
2017-06-21T14:05:31.861Z,7.70
2017-06-21T14:07:59.446Z,7.30
2017-06-21T14:10:27.309Z,7.03
2017-06-21T14:12:54.850Z,6.83
2017-06-21T14:15:22.394Z,7.10
2017-06-21T14:17:55.987Z,7.40
2017-06-21T14:20:23.525Z,6.73
2017-06-21T14:22:51.826Z,7.50
2017-06-21T14:25:19.701Z,6.90
2017-06-21T14:27:47.238Z,7.00
2017-06-21T14:30:15.541Z,6.80
2017-06-21T14:32:43.134Z,7.00
2017-06-21T14:35:10.674Z,6.90
2017-06-21T14:37:38.540Z,6.90
2017-06-21T14:40:06.082Z,7.27
2017-06-21T14:42:33.622Z,7.03
2017-06-21T14:45:01.202Z,7.20
2017-06-21T14:47:28.779Z,7.37
2017-06-21T14:49:56.365Z,7.13
2017-06-21T14:52:23.899Z,7.07
2017-06-21T14:54:52.509Z,7.30
2017-06-21T14:57:20.070Z,7.03
2017-06-21T14:59:47.606Z,6.70
2017-06-21T15:02:15.186Z,6.70
2017-06-21T15:04:42.763Z,6.50
2017-06-21T15:07:10.314Z,7.10
2017-06-21T15:09:37.906Z,6.87
2017-06-21T15:12:06.214Z,6.47
2017-06-21T15:14:33.762Z,6.80
2017-06-21T15:17:01.535Z,6.80
2017-06-21T15:19:29.494Z,6.70
2017-06-21T15:21:57.238Z,7.07
2017-06-21T15:24:25.542Z,6.77
2017-06-21T15:26:53.083Z,6.80
2017-06-21T15:29:21.438Z,7.50
2017-06-21T15:31:49.206Z,7.73
2017-06-21T15:34:16.750Z,7.17
2017-06-21T15:36:44.329Z,6.93
2017-06-21T15:39:12.297Z,7.13
2017-06-21T15:41:39.834Z,7.50
2017-06-21T15:44:07.378Z,7.23
2017-06-21T15:46:40.398Z,6.90
2017-06-21T15:49:07.937Z,7.90
2017-06-21T15:51:35.482Z,6.70
2017-06-21T15:54:03.065Z,6.97
2017-06-21T15:56:31.145Z,7.10
2017-06-21T15:58:58.689Z,6.80
2017-06-21T16:01:26.222Z,7.40
2017-06-21T16:03:54.334Z,6.43
2017-06-21T16:06:21.876Z,7.00
2017-06-21T16:08:49.414Z,6.70
2017-06-21T16:11:16.998Z,6.93
2017-06-21T16:13:44.541Z,7.07
2017-06-21T16:16:12.117Z,6.43
2017-06-21T16:18:40.055Z,7.60
2017-06-21T16:21:07.698Z,6.40
2017-06-21T16:23:36.011Z,6.90
2017-06-21T16:26:03.597Z,6.40
2017-06-21T16:28:31.173Z,7.10
2017-06-21T16:30:58.721Z,6.83
2017-06-21T16:33:26.298Z,6.63
2017-06-21T16:35:53.838Z,6.60
2017-06-21T16:38:25.548Z,6.50
2017-06-21T16:40:53.091Z,6.80
2017-06-21T16:43:21.030Z,6.23
2017-06-21T16:45:48.570Z,6.77
2017-06-21T16:48:16.109Z,6.60
2017-06-21T16:50:43.731Z,5.90
2017-06-21T16:53:11.276Z,6.63
2017-06-21T16:55:39.022Z,7.00
2017-06-21T16:58:06.556Z,6.93
2017-06-21T17:00:34.221Z,6.50
2017-06-21T17:03:01.761Z,7.03
2017-06-21T17:05:30.104Z,6.00
2017-06-21T17:07:57.748Z,7.03
2017-06-21T17:10:25.306Z,6.53
2017-06-21T17:12:53.034Z,6.70
2017-06-21T17:15:20.587Z,6.97
2017-06-21T17:17:49.069Z,6.93
2017-06-21T17:20:17.773Z,6.53
2017-06-21T17:22:45.315Z,7.00
2017-06-21T17:25:13.661Z,6.80
2017-06-21T17:27:41.253Z,6.67
2017-06-21T17:30:09.562Z,6.83
2017-06-21T17:32:37.225Z,7.13
2017-06-21T17:35:04.757Z,7.10
2017-06-21T17:37:33.060Z,6.43
2017-06-21T17:40:00.659Z,7.10
2017-06-21T17:42:28.201Z,6.73
2017-06-21T17:44:55.912Z,6.67
2017-06-21T17:47:24.228Z,6.67
2017-06-21T17:49:51.770Z,6.87
2017-06-21T17:52:19.638Z,7.20
2017-06-21T17:54:47.224Z,6.60
2017-06-21T17:57:14.813Z,6.70
2017-06-21T17:59:42.360Z,6.47
2017-06-21T18:02:09.951Z,6.87
2017-06-21T18:04:37.533Z,6.80
2017-06-21T18:07:05.079Z,6.70
2017-06-21T18:09:35.440Z,6.97
2017-06-21T18:12:02.981Z,6.90
2017-06-21T18:14:30.517Z,6.90
2017-06-21T18:16:58.093Z,6.63
2017-06-21T18:19:26.522Z,7.50
2017-06-21T18:21:54.102Z,6.80
2017-06-21T18:24:21.636Z,7.77
2017-06-21T18:26:49.426Z,7.27
2017-06-21T18:29:17.692Z,7.40
2017-06-21T18:31:45.230Z,6.80
2017-06-21T18:34:12.777Z,6.40
2017-06-21T18:36:40.389Z,7.47
2017-06-21T18:39:07.933Z,6.37
2017-06-21T18:41:35.764Z,6.80
2017-06-21T18:44:03.574Z,6.80
2017-06-21T18:46:31.114Z,7.37
2017-06-21T18:48:59.934Z,6.93
2017-06-21T18:51:27.473Z,6.70
2017-06-21T18:53:55.453Z,6.93
2017-06-21T18:56:23.022Z,6.70
2017-06-21T18:58:50.553Z,6.37
2017-06-21T19:01:18.650Z,6.40
2017-06-21T19:03:46.190Z,6.70
2017-06-21T19:06:13.729Z,6.80
2017-06-21T19:08:46.446Z,6.97
2017-06-21T19:11:13.989Z,6.37
2017-06-21T19:13:41.524Z,6.93
2017-06-21T19:16:09.109Z,6.73
2017-06-21T19:18:36.653Z,6.63
2017-06-21T19:21:04.395Z,7.43
2017-06-21T19:23:32.702Z,7.10
2017-06-21T19:26:00.294Z,7.00
2017-06-21T19:28:27.877Z,6.73
2017-06-21T19:30:56.402Z,7.07
2017-06-21T19:33:23.969Z,7.13
2017-06-21T19:35:51.509Z,6.87
2017-06-21T19:38:19.317Z,6.40
2017-06-21T19:40:52.662Z,6.23
2017-06-21T19:43:20.241Z,6.87
2017-06-21T19:45:47.822Z,7.13
2017-06-21T19:48:15.365Z,6.00
2017-06-21T19:50:42.905Z,6.50
2017-06-21T19:53:10.557Z,6.80
2017-06-21T19:55:38.865Z,7.13
2017-06-21T19:58:06.442Z,6.70
2017-06-21T20:00:33.989Z,6.87
2017-06-21T20:03:01.639Z,7.10
2017-06-21T20:05:29.177Z,6.83
2017-06-21T20:07:57.206Z,7.13
2017-06-21T20:10:24.747Z,7.10
2017-06-21T20:12:52.299Z,7.03
2017-06-21T20:15:20.195Z,7.03
2017-06-21T20:17:47.749Z,7.10
2017-06-21T20:20:16.128Z,7.90
2017-06-21T20:22:43.700Z,6.40
2017-06-21T20:25:12.860Z,7.27
2017-06-21T20:27:40.786Z,7.10
2017-06-21T20:30:08.325Z,7.70
2017-06-21T20:32:36.057Z,6.93
2017-06-21T20:35:03.598Z,7.33
2017-06-21T20:37:31.141Z,6.67
2017-06-21T20:40:03.573Z,7.00
2017-06-21T20:42:31.341Z,7.20
2017-06-21T20:44:58.877Z,7.47
2017-06-21T20:47:26.457Z,6.90
2017-06-21T20:49:54.001Z,7.30
2017-06-21T20:52:21.585Z,7.40
2017-06-21T20:54:49.129Z,7.00
2017-06-21T20:57:16.833Z,7.67
2017-06-21T20:59:44.776Z,7.23
2017-06-21T21:02:12.322Z,7.67
2017-06-21T21:04:39.867Z,7.20
2017-06-21T21:07:08.171Z,7.10
2017-06-21T21:09:35.714Z,7.57
2017-06-21T21:12:03.258Z,7.17
2017-06-21T21:14:31.366Z,7.83
2017-06-21T21:16:58.901Z,8.20
2017-06-21T21:19:26.442Z,7.27
2017-06-21T21:21:54.344Z,7.57
2017-06-21T21:24:21.926Z,7.20
2017-06-21T21:26:49.465Z,7.50
2017-06-21T21:29:18.482Z,8.07
2017-06-21T21:31:46.061Z,7.00
2017-06-21T21:34:20.042Z,7.77
2017-06-21T21:36:47.578Z,7.53
2017-06-21T21:39:15.120Z,7.87
2017-06-21T21:41:42.698Z,8.13
2017-06-21T21:44:10.243Z,8.40
2017-06-21T21:46:37.831Z,7.37
2017-06-21T21:49:05.380Z,8.10
2017-06-21T21:51:33.261Z,7.40
2017-06-21T21:54:00.802Z,8.13
2017-06-21T21:56:28.338Z,8.00
2017-06-21T21:58:55.918Z,7.50
2017-06-21T22:01:23.465Z,8.30
2017-06-21T22:03:51.213Z,8.63
2017-06-21T22:06:19.525Z,8.10
2017-06-21T22:08:47.370Z,9.23
2017-06-21T22:11:14.909Z,8.97
2017-06-21T22:13:50.963Z,8.60
2017-06-21T22:16:18.502Z,8.67
2017-06-21T22:18:48.830Z,8.30
2017-06-21T22:21:16.785Z,8.73
2017-06-21T22:23:47.269Z,8.80
2017-06-21T22:29:05.900Z,7.73
2017-06-21T22:31:45.417Z,9.03
2017-06-21T22:34:17.273Z,8.60
2017-06-21T22:39:43.447Z,8.57
2017-06-21T22:42:10.989Z,9.00
2017-06-21T22:44:38.537Z,9.37
2017-06-21T22:47:06.385Z,8.20
2017-06-21T22:49:33.930Z,8.97
2017-06-21T22:52:01.470Z,9.37
2017-06-21T22:54:29.126Z,8.97
2017-06-21T22:56:56.710Z,9.87
2017-06-21T22:59:24.253Z,9.33
2017-06-21T23:01:51.838Z,9.20
2017-06-21T23:04:19.392Z,10.03
2017-06-21T23:06:47.081Z,9.90
2017-06-21T23:09:14.621Z,9.60
2017-06-21T23:11:42.929Z,9.60
2017-06-21T23:14:10.517Z,9.73
2017-06-21T23:16:38.110Z,9.97
2017-06-21T23:19:06.426Z,10.30
2017-06-21T23:21:33.971Z,10.20
2017-06-21T23:24:01.804Z,10.37
2017-06-21T23:26:30.129Z,9.60
2017-06-21T23:28:59.574Z,10.70
2017-06-21T23:31:27.113Z,9.83
2017-06-21T23:39:37.117Z,10.27
2017-06-21T23:42:05.005Z,9.70
2017-06-21T23:58:46.548Z,9.67
